Pennsylvania — WAPZ — position and weather

sailwx.info

Track history (hours):
 
Tides and Currents Weather Stations Pressure Air Temp Water Temp Dewpoint Dewpoint Depression Visibility Wind Speed Wind Dir Waves Ship Positions

Pennsylvania

Owner: Crowley Petroleum Services, Jacksonville, FL. More information available from US FCC via Universal Licensing System and Coast Guard Vessel Documentation Center.

Last reported at 2017-Apr-12 11:36 UTC. Time now 2017-Apr-28 23:57 UTC.
Position N 29°32' W 094°54'.
Warning: this ship's position is 16 days out of date.

Length 183 m; draft 8.9 m.

Type: Tanker. MMSI: 338617000.

Date/timePositionNaut miles runAvg speedWind from/ knotsBaromVisibWave heightAir tempDewpointWater temp
2017-Apr-12 11:36N 29°32' W 094°54'2 9.9
2017-Apr-12 11:27N 29°33' W 094°55'611.0
2017-Apr-12 10:55N 29°38' W 094°58'4 9.9
2017-Apr-12 10:30N 29°42' W 094°60'4 6.7
2017-Apr-12 09:58N 29°44' W 095°03'3 5.4
2017-Apr-12 09:30N 29°45' W 095°06'0 0.5
2017-Apr-12 09:00N 29°45' W 095°06'0 0.0
2017-Apr-10 21:03N 29°45' W 095°06'0 0.0
2017-Apr-10 21:00N 29°45' W 095°06'1 1.9
2017-Apr-10 20:30N 29°46' W 095°05'3 5.6
2017-Apr-10 20:00N 29°44' W 095°03'3 6.4
2017-Apr-10 19:30N 29°42' W 094°60'4 8.5
2017-Apr-10 19:00N 29°38' W 094°58'5 9.7
2017-Apr-10 18:30N 29°34' W 094°55'5 9.6
2017-Apr-10 18:00N 29°30' W 094°52'5 9.1
2017-Apr-10 17:29N 29°26' W 094°50'5 9.5
2017-Apr-10 16:59N 29°21' W 094°47'  
2017-Apr-07 09:03N 29°19' W 094°33'0 0.0
2017-Apr-07 08:36N 29°19' W 094°33'0 0.0
2017-Apr-07 08:06N 29°19' W 094°33'  
2017-Apr-04 16:18N 29°19' W 094°34'0 0.0
2017-Apr-04 15:42N 29°19' W 094°34'0 0.0
2017-Apr-04 15:21N 29°19' W 094°34'2 1.5
2017-Apr-04 14:00N 29°18' W 094°32'5 9.4
2017-Apr-04 13:30N 29°15' W 094°28'4 8.4
2017-Apr-04 13:00N 29°11' W 094°26'611.9
2017-Apr-04 12:30N 29°08' W 094°20'612.0
2017-Apr-04 12:00N 29°05' W 094°14'612.1
2017-Apr-04 11:30N 29°01' W 094°09'612.0
2017-Apr-04 11:00N 28°58' W 094°03'612.0
2017-Apr-04 10:30N 28°54' W 093°58'612.1
2017-Apr-04 10:00N 28°51' W 093°52'612.1
2017-Apr-04 09:30N 28°47' W 093°46'612.1
2017-Apr-04 08:59N 28°44' W 093°40'612.0
2017-Apr-04 08:28N 28°40' W 093°35'612.0
2017-Apr-04 08:00N 28°37' W 093°29'611.9
2017-Apr-04 07:29N 28°33' W 093°24'1311.9
2017-Apr-04 06:25N 28°26' W 093°12'511.9
2017-Apr-04 06:00N 28°23' W 093°07'611.8
2017-Apr-04 05:28N 28°19' W 093°02'611.8
2017-Apr-04 05:00N 28°16' W 092°56'611.8
2017-Apr-04 04:30N 28°12' W 092°51'811.8
2017-Apr-04 03:51N 28°06' W 092°46'4510.7
2017-Apr-03 23:40N 27°54' W 091°57'212.1
2017-Apr-03 23:30N 27°54' W 091°55'1012.1
2017-Apr-03 22:42N 27°55' W 091°44'312.4
2017-Apr-03 22:28N 27°55' W 091°41'  
Track history (hours):
 
Tides and Currents Weather Stations Pressure Air Temp Water Temp Dewpoint Dewpoint Depression Visibility Wind Speed Wind Dir Waves Ship Positions

Pennsylvania

Owner: Crowley Petroleum Services, Jacksonville, FL. More information available from US FCC via Universal Licensing System and Coast Guard Vessel Documentation Center.

Last reported at 2017-Apr-12 11:36 UTC. Time now 2017-Apr-28 23:57 UTC.
Position N 29°32' W 094°54'.
Warning: this ship's position is 16 days out of date.

Length 183 m; draft 8.9 m.

Type: Tanker. MMSI: 338617000.

Date/timePositionNaut miles runAvg speedWind from/ knotsBaromVisibWave heightAir tempDewpointWater temp
2017-Apr-12 11:36N 29°32' W 094°54'2 9.9
2017-Apr-12 11:27N 29°33' W 094°55'611.0
2017-Apr-12 10:55N 29°38' W 094°58'4 9.9
2017-Apr-12 10:30N 29°42' W 094°60'4 6.7
2017-Apr-12 09:58N 29°44' W 095°03'3 5.4
2017-Apr-12 09:30N 29°45' W 095°06'0 0.5
2017-Apr-12 09:00N 29°45' W 095°06'0 0.0
2017-Apr-10 21:03N 29°45' W 095°06'0 0.0
2017-Apr-10 21:00N 29°45' W 095°06'1 1.9
2017-Apr-10 20:30N 29°46' W 095°05'3 5.6
2017-Apr-10 20:00N 29°44' W 095°03'3 6.4
2017-Apr-10 19:30N 29°42' W 094°60'4 8.5
2017-Apr-10 19:00N 29°38' W 094°58'5 9.7
2017-Apr-10 18:30N 29°34' W 094°55'5 9.6
2017-Apr-10 18:00N 29°30' W 094°52'5 9.1
2017-Apr-10 17:29N 29°26' W 094°50'5 9.5
2017-Apr-10 16:59N 29°21' W 094°47'  
2017-Apr-07 09:03N 29°19' W 094°33'0 0.0
2017-Apr-07 08:36N 29°19' W 094°33'0 0.0
2017-Apr-07 08:06N 29°19' W 094°33'  
2017-Apr-04 16:18N 29°19' W 094°34'0 0.0
2017-Apr-04 15:42N 29°19' W 094°34'0 0.0
2017-Apr-04 15:21N 29°19' W 094°34'2 1.5
2017-Apr-04 14:00N 29°18' W 094°32'5 9.4
2017-Apr-04 13:30N 29°15' W 094°28'4 8.4
2017-Apr-04 13:00N 29°11' W 094°26'611.9
2017-Apr-04 12:30N 29°08' W 094°20'612.0
2017-Apr-04 12:00N 29°05' W 094°14'612.1
2017-Apr-04 11:30N 29°01' W 094°09'612.0
2017-Apr-04 11:00N 28°58' W 094°03'612.0
2017-Apr-04 10:30N 28°54' W 093°58'612.1
2017-Apr-04 10:00N 28°51' W 093°52'612.1
2017-Apr-04 09:30N 28°47' W 093°46'612.1
2017-Apr-04 08:59N 28°44' W 093°40'612.0
2017-Apr-04 08:28N 28°40' W 093°35'612.0
2017-Apr-04 08:00N 28°37' W 093°29'611.9
2017-Apr-04 07:29N 28°33' W 093°24'1311.9
2017-Apr-04 06:25N 28°26' W 093°12'511.9
2017-Apr-04 06:00N 28°23' W 093°07'611.8
2017-Apr-04 05:28N 28°19' W 093°02'611.8
2017-Apr-04 05:00N 28°16' W 092°56'611.8
2017-Apr-04 04:30N 28°12' W 092°51'811.8
2017-Apr-04 03:51N 28°06' W 092°46'4510.7
2017-Apr-03 23:40N 27°54' W 091°57'212.1
2017-Apr-03 23:30N 27°54' W 091°55'1012.1
2017-Apr-03 22:42N 27°55' W 091°44'312.4
2017-Apr-03 22:28N 27°55' W 091°41'  

Dump ship's entire track history